Cristian Vega

Chefscout - Betis
7 Nov 2027
Sonntag
Verarbeitung

Persönlichkeit

Anpassungsfähigkeit (5) Ehrgeiz (9) Kontroverse (10) Loyalität (9) Druck (3) Professionalität (16) Fairness (8) Temperament (1)

Profil

Trainerstil Demokratisch
Lizenz Kontinentale C
Entschlossenheit 10
Menschenführung 15
Motivation 15
Disziplin 15
Arbeitszufriedenheit
100%
Ermüdung
0%
Rolle Chefscout
Gehalt 36.7K p/W
Vertrag 14.03.2029

Leistung

Verhalten Gut
Trainingseffektivität
55%
Spielerentwicklung
60%
Verletzungsprävention
70%
Taktische Umsetzung
55%

Aktuell beobachtet

87
Spieler Verein Status Fähigkeit Vertrauen Beobachtet Zuletzt beobachtet Letzte Stimme
Lewis Miley Leicester City Aktiv 146 / 156 40% 1 30.08.2027 -
Kauã Moraes Cruzeiro Aktiv 128 / 133 40% 1 30.08.2027 -
Amín Molinas Libertad Aktiv 116 / 119 40% 2 26.08.2027 -
Lucas Bergvall Tottenham Aktiv 147 / 154 40% 2 26.08.2027 -
Agustín Obregón River Plate Aktiv 116 / 125 40% 1 24.08.2027 -
Noah Streit CF Montreal Aktiv 105 / 121 40% 4 21.08.2027 -
Konstantinos Karetsas Borussia Dortmund Aktiv 136 / 141 40% 1 19.08.2027 -
Elias Baum Eintracht Frankfurt Aktiv 141 / 127 40% 1 19.08.2027 -
Otto Stange Hamburger SV Aktiv 126 / 128 40% 2 18.08.2027 -
Rodrigo Mora AS Roma Aktiv 147 / 154 40% 1 17.08.2027 -
Christ Inao Oulaï Fiorentina Aktiv 139 / 138 40% 1 16.08.2027 -
Seb Ferdinand Arsenal Aktiv 122 / 129 40% 2 15.08.2027 -
Rabby Nzingoula West Bromwich Albion Aktiv 113 / 130 40% 3 15.08.2027 -
Souza Tottenham Aktiv 128 / 140 40% 9 14.08.2027 -
Thiago Helguera Braga Aktiv 120 / 129 40% 4 14.08.2027 -
Ibrahim Coulibaly Clermont Foot Aktiv 110 / 120 40% 2 14.08.2027 -
Kieran Morrison Liverpool Aktiv 112 / 124 40% 1 12.08.2027 -
Sergiu Perciun Torino Aktiv 116 / 118 40% 3 10.08.2027 -
Alisson Shakhtar Aktiv 122 / 145 40% 1 10.08.2027 -
Noa Mikić Dinamo Zagreb Aktiv 113 / 128 40% 3 08.08.2027 -
Augusto Bando Ascoli Aktiv 113 / 116 40% 1 06.08.2027 -
Dani Díaz Real Sociedad Aktiv 119 / 126 40% 2 04.08.2027 -
Brandon Powell Blackburn Rovers Aktiv 118 / 114 40% 4 04.08.2027 -
Kendry Páez Chelsea Aktiv 121 / 131 40% 1 03.08.2027 -
Hamza Güreler Basaksehir Aktiv 123 / 128 40% 1 03.08.2027 -
Abdelhamid Ait Boudlal Stade Rennais Aktiv 122 / 119 40% 2 02.08.2027 -
Yoram Zague Paris Saint-Germain Aktiv 126 / 122 40% 1 02.08.2027 -
Somto Boniface Ipswich Town Aktiv 110 / 125 40% 3 01.08.2027 -
Jan Salas Mallorca Aktiv 107 / 122 40% 1 30.07.2027 -
İsak Vural Pisa Aktiv 117 / 127 40% 1 29.07.2027 -
Morgan Dala New York Red Bulls Aktiv 116 / 133 40% 3 25.07.2027 -
Dylan Gorosito Boca Juniors Aktiv 109 / 110 40% 2 22.07.2027 -
Alejandro Almaraz Oviedo Aktiv 117 / 119 40% 3 22.07.2027 -
Almugera Kabar Borussia Dortmund Aktiv 129 / 129 40% 1 22.07.2027 -
Robinio Vaz AS Roma Aktiv 115 / 133 40% 1 22.07.2027 -
Rayan Bournemouth Aktiv 137 / 143 40% 1 21.07.2027 -
Mateo Aguiar Defensa y Justicia Aktiv 100 / 114 40% 1 18.07.2027 -
Vitor Reis Manchester City Aktiv 145 / 142 40% 1 17.07.2027 -
Olti Hyseni Brondby Aktiv 115 / 125 40% 1 17.07.2027 -
Amir Mohammad Razzaghinia Esteghlal Aktiv 104 / 110 40% 1 15.07.2027 -
Valente Pierani Estudiantes Aktiv 114 / 121 40% 4 13.07.2027 -
George Abbott Tottenham Aktiv 116 / 117 40% 3 13.07.2027 -
Dayann Methalie Sunderland Aktiv 131 / 140 40% 3 11.07.2027 -
Ishé Samuels-Smith Chelsea Aktiv 126 / 133 40% 4 10.07.2027 -
Vincent Burlet Cracovia Aktiv 113 / 112 40% 2 09.07.2027 -
Sabil Hansen Randers Aktiv 116 / 106 40% 2 06.07.2027 -
Yasin Özcan Aston Villa Aktiv 113 / 119 40% 2 03.07.2027 -
Mads Bomholt Rosenborg Aktiv 95 / 105 40% 2 28.06.2027 -
Malick Yalcouyé Brighton Aktiv 126 / 139 40% 3 23.06.2027 -
Yarin Levi Maccabi Haifa Aktiv 109 / 119 40% 2 21.06.2027 -
Samuele di Benedetto Union Berlin Aktiv 111 / 116 40% 1 18.06.2027 -
Lewis Koumas Liverpool Aktiv 116 / 117 40% 1 18.06.2027 -
Alysson Edward Aston Villa Aktiv 129 / 121 40% 3 13.06.2027 -
Jan Paluska Viktoria Plzen Aktiv 110 / 127 40% 1 10.06.2027 -
Axel Tape Bayer Leverkusen Abgelehnt 123 / 132 40% 3 02.06.2027 Ablehnen
Alejandro Catena Osasuna Aktiv 145 / 132 55% 1 02.06.2027 -
Diogo Guzmán Montevideo City Torque Aktiv 124 / 123 40% 2 31.01.2027 Mehr Infos nötig
Matheus Gonçalves Al-Ahli Abgelehnt 146 / 139 40% 2 31.01.2027 Mehr Infos nötig
Bung Meng Freimann Luzern Aktiv 105 / 118 40% 1 31.01.2027 -
Joaquin Seys Club Brugge Aktiv 132 / 134 40% 4 30.01.2027 -
Oscar Kabwit Luzern Aktiv 111 / 114 40% 1 29.01.2027 -
Santiago Grella Unión de Santa Fe Aktiv 104 / 107 40% 1 29.01.2027 -
Breno Bidon Corinthians Aktiv 141 / 137 40% 3 27.01.2027 -
Juan Giménez Athletic Bilbao Aktiv 116 / 133 40% 1 27.01.2027 -
Chris Rigg Sunderland Abgelehnt 144 / 142 40% 4 25.01.2027 Ablehnen
Cam Bragg Southampton Aktiv 107 / 120 40% 1 20.01.2027 -
Emirhan Başyiğit Sivasspor Aktiv 102 / 121 40% 1 20.01.2027 -
Lovro Zvonarek Estrela da Amadora Aktiv 110 / 125 40% 1 20.01.2027 -
Eliesse Ben Seghir Bayer Leverkusen Aktiv 129 / 140 40% 1 20.01.2027 -
Honest Ahanor Fiorentina Aktiv 121 / 140 40% 2 17.01.2027 -
Ignacio Perruzzi San Lorenzo Aktiv 119 / 133 40% 3 16.01.2027 -
Francisco Chissumba Braga Aktiv 132 / 124 40% 1 15.01.2027 -
Tristan Degreef Anderlecht Aktiv 132 / 125 40% 1 11.01.2027 -
Martin Georgiev AEK Aktiv 110 / 112 40% 1 10.01.2027 -
Edmund Baidoo Borussia Dortmund Aktiv 116 / 135 40% 1 03.01.2027 -
Bobby Clark Derby County Aktiv 114 / 133 40% 1 03.01.2027 -
Ollie Scarles West Ham United Aktiv 139 / 138 40% 1 30.08.2026 -
Jonathan Asp-Jensen Deportivo La Coruña Aktiv 125 / 120 40% 1 30.08.2026 -
Alex Matos Burnley Aktiv 129 / 132 40% 1 27.08.2026 -
Halam Loboa Osasuna Aktiv 106 / 124 40% 1 21.08.2026 -
Nahuel Herrera Porto Aktiv 134 / 135 40% 1 21.08.2026 -
Jaydee Canvot Crystal Palace Aktiv 126 / 133 40% 1 20.08.2026 -
Ismaëlo Ganiou RC Lens Aktiv 125 / 130 40% 1 19.08.2026 -
Xavi Grande Levante Aktiv 119 / 116 40% 1 18.08.2026 -
Jocelin Ta Bi Sunderland Aktiv 97 / 111 40% 1 18.08.2026 -
Gonzalo Gómez Juventud Aktiv 115 / 110 40% 1 04.08.2026 -
Juan Pablo De la Reta Maipú Aktiv 104 / 111 40% 1 02.08.2026 -